Terminal Aerodrome Forecast
Issued by NWS

Current Version | Previous Version | Graphics & Text | Print | Product List | Glossary On
Versions: 1 2 3 4 5 6 7 8 9 10 11 12 13 14 15 16 17 18 19 20 21 22 23 24 25 26 27 28 29
000
FTUS41 KILN 280900 AAA
TAFLUK
TAF AMD
KLUK 280913Z 2809/2906 28008KT P6SM SCT020
     FM281030 30010KT P6SM BKN020
     FM281500 32010KT P6SM BKN025
     FM281800 32012KT P6SM VCSH BKN035
     FM290100 34003KT P6SM SCT035=

USA.gov is the U.S. government's official web portal to all federal, state and local government web resources and services.